Time,TemperatureF,DewpointF,PressureIn,WindDirection,WindDirectionDegrees,WindSpeedMPH,WindSpeedGustMPH,Humidity,HourlyPrecipIn,Conditions,Clouds,dailyrainin,SoftwareType,DateUTC
2013-08-21 00:14:00,62.0,61.0,30.06,SSE,157,0.0,-999.0,96,-99.99,,,-99.99,,2013-08-21 04:14:00,
2013-08-21 00:24:00,62.0,61.0,30.06,SSE,157,0.0,-999.0,96,-99.99,,,-99.99,,2013-08-21 04:24:00,
2013-08-21 00:44:00,62.0,61.0,30.06,SSE,155,0.0,-999.0,95,-99.99,,,-99.99,,2013-08-21 04:44:00,
2013-08-21 00:54:00,63.0,61.0,30.06,SSE,155,0.0,-999.0,94,-99.99,,,-99.99,,2013-08-21 04:54:00,
2013-08-21 01:13:00,62.0,60.0,30.06,SSE,155,0.0,-999.0,93,-99.99,,,-99.99,,2013-08-21 05:13:00,
2013-08-21 01:23:00,62.0,60.0,30.06,SSE,155,0.0,-999.0,93,-99.99,,,-99.99,,2013-08-21 05:23:00,
2013-08-21 01:43:00,63.0,61.0,30.06,SSE,155,0.0,-999.0,92,-99.99,,,-99.99,,2013-08-21 05:43:00,
2013-08-21 01:52:00,63.0,60.0,30.06,SSE,155,0.0,-999.0,90,-99.99,,,-99.99,,2013-08-21 05:52:00,
2013-08-21 02:12:00,63.0,60.0,30.06,SSE,165,0.0,-999.0,90,-99.99,,,-99.99,,2013-08-21 06:12:00,
2013-08-21 02:22:00,63.0,60.0,30.05,SSE,152,0.0,-999.0,89,-99.99,,,-99.99,,2013-08-21 06:22:00,
2013-08-21 02:42:00,63.0,59.0,30.05,SSE,157,0.0,-999.0,88,-99.99,,,-99.99,,2013-08-21 06:42:00,
2013-08-21 02:52:00,63.0,59.0,30.06,SSE,157,0.0,-999.0,87,-99.99,,,-99.99,,2013-08-21 06:52:00,
2013-08-21 03:11:00,62.0,58.0,30.05,SSE,157,0.0,-999.0,87,-99.99,,,-99.99,,2013-08-21 07:11:00,
2013-08-21 03:22:00,62.0,58.0,30.05,SSE,157,0.0,-999.0,88,-99.99,,,-99.99,,2013-08-21 07:22:00,
2013-08-21 03:42:00,62.0,58.0,30.06,SSE,155,1.0,-999.0,88,-99.99,,,-99.99,,2013-08-21 07:42:00,
2013-08-21 03:53:00,62.0,58.0,30.06,SSE,155,0.0,-999.0,87,-99.99,,,-99.99,,2013-08-21 07:53:00,
2013-08-21 04:12:00,62.0,59.0,30.06,SSE,155,0.0,-999.0,89,-99.99,,,-99.99,,2013-08-21 08:12:00,
2013-08-21 04:22:00,61.0,58.0,30.06,SSE,155,0.0,-999.0,90,-99.99,,,-99.99,,2013-08-21 08:22:00,
2013-08-21 04:43:00,61.0,58.0,30.06,SSE,155,0.0,-999.0,91,-99.99,,,-99.99,,2013-08-21 08:43:00,
2013-08-21 04:52:00,60.0,58.0,30.06,SSE,155,0.0,-999.0,92,-99.99,,,-99.99,,2013-08-21 08:52:00,
2013-08-21 05:11:00,60.0,58.0,30.06,SSE,155,0.0,-999.0,93,-99.99,,,-99.99,,2013-08-21 09:11:00,
2013-08-21 05:22:00,60.0,58.0,30.07,SSE,155,0.0,-999.0,94,-99.99,,,-99.99,,2013-08-21 09:22:00,
2013-08-21 05:43:00,59.0,57.0,30.07,SSE,155,0.0,-999.0,94,-99.99,,,-99.99,,2013-08-21 09:43:00,
2013-08-21 05:53:00,59.0,58.0,30.08,SSE,155,0.0,-999.0,95,-99.99,,,-99.99,,2013-08-21 09:53:00,
2013-08-21 06:13:00,59.0,58.0,30.08,SSE,155,0.0,-999.0,96,-99.99,,,-99.99,,2013-08-21 10:13:00,
2013-08-21 06:23:00,58.0,57.0,30.08,SSE,155,0.0,-999.0,97,-99.99,,,-99.99,,2013-08-21 10:23:00,
2013-08-21 06:43:00,58.0,57.0,30.08,SSE,155,0.0,-999.0,98,-99.99,,,-99.99,,2013-08-21 10:43:00,
2013-08-21 06:52:00,58.0,58.0,30.09,SSE,155,0.0,-999.0,100,-99.99,,,-99.99,,2013-08-21 10:52:00,
2013-08-21 07:12:00,58.0,58.0,30.09,SSE,155,0.0,-999.0,100,-99.99,,,-99.99,,2013-08-21 11:12:00,
2013-08-21 07:22:00,58.0,58.0,30.09,SSE,155,0.0,-999.0,100,-99.99,,,-99.99,,2013-08-21 11:22:00,
2013-08-21 07:42:00,58.0,58.0,30.09,SSE,155,0.0,-999.0,100,-99.99,,,-99.99,,2013-08-21 11:42:00,
2013-08-21 07:52:00,59.0,59.0,30.09,SSE,155,0.0,-999.0,100,-99.99,,,-99.99,,2013-08-21 11:52:00,
2013-08-21 08:12:00,60.0,60.0,30.09,SSE,155,0.0,-999.0,100,-99.99,,,-99.99,,2013-08-21 12:12:00,
2013-08-21 08:22:00,61.0,61.0,30.09,SSE,155,0.0,-999.0,100,-99.99,,,-99.99,,2013-08-21 12:22:00,
2013-08-21 08:42:00,63.0,63.0,30.09,SSE,155,0.0,-999.0,100,-99.99,,,-99.99,,2013-08-21 12:42:00,
2013-08-21 08:52:00,65.0,64.0,30.10,SSE,158,1.0,-999.0,95,-99.99,,,-99.99,,2013-08-21 12:52:00,
2013-08-21 09:12:00,67.0,63.0,30.10,SSE,161,0.0,-999.0,86,-99.99,,,-99.99,,2013-08-21 13:12:00,
2013-08-21 09:21:00,69.0,63.0,30.10,SSE,161,0.0,-999.0,80,-99.99,,,-99.99,,2013-08-21 13:21:00,
2013-08-21 09:42:00,71.0,62.0,30.09,SSE,161,0.0,-999.0,73,-99.99,,,-99.99,,2013-08-21 13:42:00,
2013-08-21 09:52:00,73.0,63.0,30.09,SSE,161,0.0,-999.0,70,-99.99,,,-99.99,,2013-08-21 13:52:00,
2013-08-21 10:12:00,74.0,62.0,30.09,SSE,161,0.0,-999.0,66,-99.99,,,-99.99,,2013-08-21 14:12:00,
2013-08-21 10:21:00,75.0,62.0,30.09,SSE,161,0.0,-999.0,64,-99.99,,,-99.99,,2013-08-21 14:21:00,
2013-08-21 10:42:00,76.0,63.0,30.09,SSE,161,0.0,-999.0,64,-99.99,,,-99.99,,2013-08-21 14:42:00,
2013-08-21 10:52:00,78.0,63.0,30.09,SSE,161,0.0,-999.0,61,-99.99,,,-99.99,,2013-08-21 14:52:00,
2013-08-21 11:11:00,78.0,63.0,30.09,WNW,282,0.0,-999.0,60,-99.99,,,-99.99,,2013-08-21 15:11:00,
2013-08-21 11:22:00,78.0,62.0,30.09,NW,308,1.0,-999.0,58,-99.99,,,-99.99,,2013-08-21 15:22:00,
2013-08-21 11:43:00,79.0,62.0,30.09,NW,313,1.0,-999.0,57,-99.99,,,-99.99,,2013-08-21 15:43:00,
2013-08-21 11:54:00,80.0,63.0,30.09,NW,312,0.0,-999.0,56,-99.99,,,-99.99,,2013-08-21 15:54:00,
2013-08-21 12:13:00,79.0,62.0,30.09,NW,316,1.0,-999.0,56,-99.99,,,-99.99,,2013-08-21 16:13:00,
2013-08-21 12:24:00,80.0,62.0,30.09,NW,308,0.0,-999.0,54,-99.99,,,-99.99,,2013-08-21 16:24:00,
2013-08-21 12:43:00,80.0,62.0,30.09,NW,313,2.0,-999.0,54,-99.99,,,-99.99,,2013-08-21 16:43:00,
2013-08-21 12:53:00,79.0,61.0,30.09,NW,323,3.0,-999.0,54,-99.99,,,-99.99,,2013-08-21 16:53:00,
2013-08-21 13:13:00,81.0,61.0,30.08,WSW,241,0.0,-999.0,51,-99.99,,,-99.99,,2013-08-21 17:13:00,
2013-08-21 13:23:00,81.0,63.0,30.07,WNW,295,1.0,-999.0,55,-99.99,,,-99.99,,2013-08-21 17:23:00,
2013-08-21 13:43:00,80.0,60.0,30.07,NW,311,1.0,-999.0,51,-99.99,,,-99.99,,2013-08-21 17:43:00,
2013-08-21 13:53:00,80.0,61.0,30.07,NW,313,3.0,-999.0,52,-99.99,,,-99.99,,2013-08-21 17:53:00,
2013-08-21 14:12:00,81.0,62.0,30.06,WSW,250,1.0,-999.0,52,-99.99,,,-99.99,,2013-08-21 18:12:00,
2013-08-21 14:22:00,82.0,60.0,30.06,West,271,2.0,-999.0,48,-99.99,,,-99.99,,2013-08-21 18:22:00,
2013-08-21 14:42:00,83.0,60.0,30.06,West,277,2.0,-999.0,46,-99.99,,,-99.99,,2013-08-21 18:42:00,
2013-08-21 14:52:00,83.0,60.0,30.05,NW,320,2.0,-999.0,46,-99.99,,,-99.99,,2013-08-21 18:52:00,
2013-08-21 15:12:00,83.0,61.0,30.04,NW,306,1.0,-999.0,48,-99.99,,,-99.99,,2013-08-21 19:12:00,
2013-08-21 15:22:00,82.0,61.0,30.04,NW,322,1.0,-999.0,50,-99.99,,,-99.99,,2013-08-21 19:22:00,
2013-08-21 15:52:00,81.0,60.0,30.03,NW,323,1.0,-999.0,49,-99.99,,,-99.99,,2013-08-21 19:52:00,
2013-08-21 16:11:00,82.0,60.0,30.03,NW,311,2.0,-999.0,47,-99.99,,,-99.99,,2013-08-21 20:11:00,
2013-08-21 16:22:00,81.0,59.0,30.02,NW,308,0.0,-999.0,47,-99.99,,,-99.99,,2013-08-21 20:22:00,
2013-08-21 16:52:00,82.0,60.0,30.01,NW,325,1.0,-999.0,47,-99.99,,,-99.99,,2013-08-21 20:52:00,
2013-08-21 17:12:00,82.0,59.0,30.01,NW,319,2.0,-999.0,45,-99.99,,,-99.99,,2013-08-21 21:12:00,
2013-08-21 17:22:00,82.0,59.0,30.01,NW,318,1.0,-999.0,45,-99.99,,,-99.99,,2013-08-21 21:22:00,
2013-08-21 17:54:00,82.0,58.0,30.00,NW,322,0.0,-999.0,44,-99.99,,,-99.99,,2013-08-21 21:54:00,
2013-08-21 18:14:00,82.0,60.0,30.00,NW,320,1.0,-999.0,47,-99.99,,,-99.99,,2013-08-21 22:14:00,
2013-08-21 18:24:00,81.0,58.0,30.00,WNW,299,0.0,-999.0,45,-99.99,,,-99.99,,2013-08-21 22:24:00,
2013-08-21 18:53:00,81.0,59.0,29.99,WNW,299,0.0,-999.0,48,-99.99,,,-99.99,,2013-08-21 22:53:00,
2013-08-21 19:13:00,80.0,61.0,29.98,WNW,299,0.0,-999.0,52,-99.99,,,-99.99,,2013-08-21 23:13:00,
2013-08-21 19:22:00,80.0,63.0,29.98,WNW,299,0.0,-999.0,56,-99.99,,,-99.99,,2013-08-21 23:22:00,
2013-08-21 19:53:00,77.0,63.0,29.98,WNW,298,0.0,-999.0,63,-99.99,,,-99.99,,2013-08-21 23:53:00,
2013-08-21 20:12:00,76.0,64.0,29.98,WNW,299,0.0,-999.0,67,-99.99,,,-99.99,,2013-08-22 00:12:00,
2013-08-21 20:22:00,74.0,64.0,29.98,WNW,299,0.0,-999.0,71,-99.99,,,-99.99,,2013-08-22 00:22:00,
2013-08-21 20:42:00,72.0,63.0,29.98,WNW,299,0.0,-999.0,73,-99.99,,,-99.99,,2013-08-22 00:42:00,
2013-08-21 20:52:00,70.0,62.0,29.98,WNW,298,0.0,-999.0,76,-99.99,,,-99.99,,2013-08-22 00:52:00,
2013-08-21 21:12:00,69.0,61.0,29.98,SW,217,0.0,-999.0,77,-99.99,,,-99.99,,2013-08-22 01:12:00,
2013-08-21 21:22:00,68.0,61.0,29.98,SW,217,0.0,-999.0,78,-99.99,,,-99.99,,2013-08-22 01:22:00,
2013-08-21 21:42:00,67.0,60.0,29.98,SW,216,0.0,-999.0,78,-99.99,,,-99.99,,2013-08-22 01:42:00,
2013-08-21 21:52:00,67.0,60.0,29.97,SW,216,0.0,-999.0,78,-99.99,,,-99.99,,2013-08-22 01:52:00,
2013-08-21 22:12:00,67.0,60.0,29.97,SSE,167,2.0,-999.0,78,-99.99,,,-99.99,,2013-08-22 02:12:00,
2013-08-21 22:22:00,67.0,59.0,29.96,SSE,148,2.0,-999.0,75,-99.99,,,-99.99,,2013-08-22 02:22:00,
2013-08-21 23:12:00,68.0,59.0,29.96,SE,136,0.0,-999.0,72,-99.99,,,-99.99,,2013-08-22 03:12:00,
2013-08-21 23:22:00,67.0,58.0,29.96,SE,137,0.0,-999.0,73,-99.99,,,-99.99,,2013-08-22 03:22:00,
2013-08-21 23:45:00,66.0,57.0,29.96,SE,136,0.0,-999.0,74,-99.99,,,-99.99,,2013-08-22 03:45:00,
2013-08-21 23:54:00,66.0,58.0,29.96,South,169,1.0,-999.0,75,-99.99,,,-99.99,,2013-08-22 03:54:00,